Weather Data

Pearl Creek Farm: 8878 N Farm Road 75, Walnut Grove MO 65770

<== Previous Day (Friday 22 Jun 2018) | Next Day (Sunday 24 Jun 2018) ==>

Summary Precipitation Data For Saturday 23 June 2018

ElementValueUnits
Precipitation0"
Notes(none)
SourcePearl Creek Farm

Summary Temperature Data For Saturday 23 June 2018

ElementValueUnits
High Temperature87 oF
Low Temperature66 oF
Average Temperature77 oF
High Humidity87 %
Low Humidity45 %
Average Humidity67 %
SourceSpringfield-Branson National Airport (SGF)

Detail Temperature Data For Saturday 23 June 2018

Date / TimeTemp (F)RH (%)Dew Pt (F)Report Date / TimeSource
2018-06-23 00:52:00 67 87 63.0 2019-02-02 11:24:24.260017 Springfield-Branson National Airport (SGF)
2018-06-23 01:52:00 66 87 62.0 2019-02-02 11:24:24.260017 Springfield-Branson National Airport (SGF)
2018-06-23 02:52:00 66 87 62.0 2019-02-02 11:24:24.260017 Springfield-Branson National Airport (SGF)
2018-06-23 03:52:00 67 87 63.0 2019-02-02 11:24:24.260017 Springfield-Branson National Airport (SGF)
2018-06-23 04:52:00 67 87 63.0 2019-02-02 11:24:24.260017 Springfield-Branson National Airport (SGF)
2018-06-23 05:52:00 68 84 63.0 2019-02-02 11:24:24.260017 Springfield-Branson National Airport (SGF)
2018-06-23 06:52:00 70 79 63.0 2019-02-02 11:24:24.260017 Springfield-Branson National Airport (SGF)
2018-06-23 07:52:00 74 74 65.0 2019-02-02 11:24:24.260017 Springfield-Branson National Airport (SGF)
2018-06-23 08:52:00 76 69 65.0 2019-02-02 11:24:24.260017 Springfield-Branson National Airport (SGF)
2018-06-23 09:52:00 79 65 66.0 2019-02-02 11:24:24.260017 Springfield-Branson National Airport (SGF)
2018-06-23 10:52:00 82 53 63.0 2019-02-02 11:24:24.260017 Springfield-Branson National Airport (SGF)
2018-06-23 11:52:00 84 51 64.0 2019-02-02 11:24:24.260017 Springfield-Branson National Airport (SGF)
2018-06-23 12:52:00 85 50 64.0 2019-02-02 11:24:24.260017 Springfield-Branson National Airport (SGF)
2018-06-23 13:52:00 86 48 64.0 2019-02-02 11:24:24.260017 Springfield-Branson National Airport (SGF)
2018-06-23 14:52:00 87 46 64.0 2019-02-02 11:24:24.260017 Springfield-Branson National Airport (SGF)
2018-06-23 15:52:00 87 46 64.0 2019-02-02 11:24:24.260017 Springfield-Branson National Airport (SGF)
2018-06-23 16:52:00 87 45 63.0 2019-02-02 11:24:24.260017 Springfield-Branson National Airport (SGF)
2018-06-23 17:52:00 86 49 65.0 2019-02-02 11:24:24.260017 Springfield-Branson National Airport (SGF)
2018-06-23 18:52:00 85 50 64.0 2019-02-02 11:24:24.260017 Springfield-Branson National Airport (SGF)
2018-06-23 19:52:00 81 61 66.0 2019-02-02 11:24:24.260017 Springfield-Branson National Airport (SGF)
2018-06-23 20:52:00 73 79 66.0 2019-02-02 11:24:24.260017 Springfield-Branson National Airport (SGF)
2018-06-23 21:52:00 73 76 65.0 2019-02-02 11:24:24.260017 Springfield-Branson National Airport (SGF)
2018-06-23 22:52:00 72 82 66.0 2019-02-02 11:24:24.260017 Springfield-Branson National Airport (SGF)
2018-06-23 23:52:00 72 76 64.0 2019-02-02 11:24:24.260017 Springfield-Branson National Airport (SGF)

A total of 24 rows are displayed.